createdAt,value
2018-12-26T00:02:04.405Z,101807.91
2018-12-26T00:04:33.559Z,101804.78
2018-12-26T00:07:02.869Z,101805.16
2018-12-26T00:09:32.068Z,101803.48
2018-12-26T00:12:00.234Z,101802.14
2018-12-26T00:14:28.492Z,101805.11
2018-12-26T00:16:58.927Z,101802.90
2018-12-26T00:19:27.024Z,101792.92
2018-12-26T00:21:55.079Z,101793.46
2018-12-26T00:24:26.010Z,101790.03
2018-12-26T00:26:54.641Z,101797.47
2018-12-26T00:29:24.442Z,101794.42
2018-12-26T00:31:53.612Z,101801.73
2018-12-26T00:34:21.704Z,101794.42
2018-12-26T00:36:51.417Z,101797.09
2018-12-26T00:39:19.507Z,101796.02
2018-12-26T00:41:47.946Z,101798.77
2018-12-26T00:44:16.621Z,101794.51
2018-12-26T00:46:44.730Z,101793.67
2018-12-26T00:49:14.045Z,101794.42
2018-12-26T00:51:42.113Z,101791.00
2018-12-26T00:54:10.158Z,101785.75
2018-12-26T00:56:38.472Z,101779.20
2018-12-26T00:59:06.853Z,101786.13
2018-12-26T01:01:34.937Z,101784.45
2018-12-26T01:04:03.850Z,101783.78
2018-12-26T01:06:31.872Z,101782.53
2018-12-26T01:08:59.928Z,101775.64
2018-12-26T01:11:28.266Z,101772.59
2018-12-26T01:13:57.077Z,101778.06
2018-12-26T01:16:25.100Z,101780.66
2018-12-26T01:18:53.213Z,101768.72
2018-12-26T01:21:21.291Z,101772.73
2018-12-26T01:23:49.762Z,101782.23
2018-12-26T01:26:19.259Z,101777.06
2018-12-26T01:28:48.010Z,101768.84
2018-12-26T01:31:16.102Z,101768.92
2018-12-26T01:33:44.160Z,101766.42
2018-12-26T01:36:12.233Z,101766.09
2018-12-26T01:38:40.554Z,101773.94
2018-12-26T01:41:08.992Z,101766.72
2018-12-26T01:43:37.178Z,101765.05
2018-12-26T01:46:05.282Z,101769.67
2018-12-26T01:48:33.399Z,101768.30
2018-12-26T01:51:02.636Z,101769.14
2018-12-26T01:53:31.842Z,101765.26
2018-12-26T01:55:59.934Z,101770.52
2018-12-26T01:58:27.941Z,101770.97
2018-12-26T02:00:56.044Z,101772.64
2018-12-26T02:03:25.735Z,101767.47
2018-12-26T02:05:53.775Z,101761.84
2018-12-26T02:08:21.859Z,101759.70
2018-12-26T02:10:50.323Z,101763.59
2018-12-26T02:13:18.523Z,101759.70
2018-12-26T02:15:48.386Z,101757.12
2018-12-26T02:18:17.414Z,101754.62
2018-12-26T02:20:46.178Z,101753.41
2018-12-26T02:23:14.690Z,101755.91
2018-12-26T02:25:42.766Z,101755.37
2018-12-26T02:28:10.846Z,101757.04
2018-12-26T02:30:38.884Z,101763.00
2018-12-26T02:33:06.948Z,101768.47
2018-12-26T02:35:36.032Z,101773.94
2018-12-26T02:38:04.169Z,101773.05
2018-12-26T02:40:32.258Z,101772.64
2018-12-26T02:43:00.411Z,101769.22
2018-12-26T02:45:28.784Z,101773.11
2018-12-26T02:47:57.000Z,101766.18
2018-12-26T02:50:26.109Z,101770.52
2018-12-26T02:52:55.936Z,101763.59
2018-12-26T02:55:24.445Z,101771.67
2018-12-26T02:57:52.533Z,101766.42
2018-12-26T03:00:21.191Z,101763.24
2018-12-26T03:02:51.509Z,101761.55
2018-12-26T03:05:19.599Z,101758.58
2018-12-26T03:07:48.155Z,101755.23
2018-12-26T03:10:16.595Z,101756.91
2018-12-26T03:12:44.645Z,101751.73
2018-12-26T03:15:12.808Z,101749.69
2018-12-26T03:17:40.942Z,101744.19
2018-12-26T03:20:09.012Z,101731.87
2018-12-26T03:22:37.410Z,101728.20
2018-12-26T03:25:05.603Z,101727.53
2018-12-26T03:27:34.243Z,101723.95
2018-12-26T03:30:02.881Z,101717.70
2018-12-26T03:32:32.140Z,101710.10
2018-12-26T03:35:00.656Z,101705.22
2018-12-26T03:37:29.003Z,101697.84
2018-12-26T03:39:57.175Z,101690.63
2018-12-26T03:42:27.451Z,101702.39
2018-12-26T03:44:56.598Z,101691.00
2018-12-26T03:47:25.455Z,101682.91
2018-12-26T03:49:53.635Z,101675.41
2018-12-26T03:52:21.662Z,101670.90
2018-12-26T03:54:49.833Z,101669.06
2018-12-26T03:57:18.010Z,101675.66
2018-12-26T03:59:46.150Z,101679.16
2018-12-26T04:02:14.299Z,101673.98
2018-12-26T04:04:43.781Z,101677.86
2018-12-26T04:07:11.808Z,101679.53
2018-12-26T04:09:40.411Z,101677.36
2018-12-26T04:12:08.449Z,101676.81
2018-12-26T04:14:36.472Z,101675.91
2018-12-26T04:17:04.478Z,101678.57
2018-12-26T04:19:32.607Z,101688.98
2018-12-26T04:22:00.807Z,101681.06
2018-12-26T04:24:30.087Z,101678.48
2018-12-26T04:26:58.194Z,101677.64
2018-12-26T04:29:27.727Z,101668.59
2018-12-26T04:31:57.533Z,101680.73
2018-12-26T04:34:27.353Z,101688.06
2018-12-26T04:36:55.753Z,101685.91
2018-12-26T04:39:23.784Z,101690.70
2018-12-26T04:41:51.888Z,101700.12
2018-12-26T04:44:20.341Z,101697.11
2018-12-26T04:46:48.371Z,101696.11
2018-12-26T04:49:16.440Z,101695.05
2018-12-26T04:51:44.514Z,101698.25
2018-12-26T04:54:12.602Z,101702.76
2018-12-26T04:56:40.632Z,101698.13
2018-12-26T04:59:08.661Z,101699.34
2018-12-26T05:01:43.094Z,101706.34
2018-12-26T05:10:12.974Z,101694.45
2018-12-26T05:12:41.041Z,101694.41
2018-12-26T05:15:11.037Z,101707.73
2018-12-26T05:17:39.102Z,101708.56
2018-12-26T05:20:07.346Z,101708.95
2018-12-26T05:22:35.391Z,101709.70
2018-12-26T05:25:03.995Z,101708.79
2018-12-26T05:27:34.269Z,101712.92
2018-12-26T05:30:03.283Z,101704.41
2018-12-26T05:32:31.506Z,101699.52
2018-12-26T05:34:59.560Z,101706.48
2018-12-26T05:37:27.606Z,101705.81
2018-12-26T05:39:55.672Z,101709.77
2018-12-26T05:42:23.709Z,101718.48
2018-12-26T05:44:52.081Z,101728.73
2018-12-26T05:47:20.660Z,101721.77
2018-12-26T05:49:48.847Z,101715.23
2018-12-26T05:52:17.005Z,101722.41
2018-12-26T05:54:45.073Z,101726.28
2018-12-26T05:57:13.076Z,101727.95
2018-12-26T05:59:41.133Z,101731.75
2018-12-26T06:02:09.233Z,101736.38
2018-12-26T06:04:37.634Z,101734.71
2018-12-26T06:07:05.943Z,101730.00
2018-12-26T06:09:33.996Z,101729.63
2018-12-26T06:12:03.442Z,101739.58
2018-12-26T06:14:32.511Z,101744.22
2018-12-26T06:17:01.629Z,101745.89
2018-12-26T06:19:29.705Z,101740.64
2018-12-26T06:21:57.758Z,101740.06
2018-12-26T06:24:25.818Z,101743.73
2018-12-26T06:26:53.865Z,101743.95
2018-12-26T06:29:22.367Z,101748.91
2018-12-26T06:31:51.088Z,101745.26
2018-12-26T06:34:19.279Z,101746.34
2018-12-26T06:36:47.306Z,101745.43
2018-12-26T06:39:16.283Z,101752.27
2018-12-26T06:41:46.810Z,101747.89
2018-12-26T06:44:14.929Z,101745.59
2018-12-26T06:46:43.342Z,101744.18
2018-12-26T06:49:11.457Z,101740.67
2018-12-26T06:51:39.488Z,101742.02
2018-12-26T06:54:07.544Z,101745.52
2018-12-26T06:56:35.557Z,101735.41
2018-12-26T06:59:04.410Z,101738.05
2018-12-26T07:01:32.477Z,101736.45
2018-12-26T07:04:01.077Z,101738.13
2018-12-26T07:06:29.113Z,101742.01
2018-12-26T07:08:57.471Z,101741.55
2018-12-26T07:11:25.695Z,101748.80
2018-12-26T07:13:53.686Z,101746.97
2018-12-26T07:16:21.734Z,101746.89
2018-12-26T07:18:50.081Z,101745.89
2018-12-26T07:21:18.248Z,101748.81
2018-12-26T07:23:48.370Z,101746.23
2018-12-26T07:26:17.528Z,101760.29
2018-12-26T07:28:46.776Z,101759.83
2018-12-26T07:31:16.639Z,101758.62
2018-12-26T07:33:44.658Z,101762.95
2018-12-26T07:36:12.757Z,101763.03
2018-12-26T07:38:40.961Z,101766.53
2018-12-26T07:41:09.125Z,101772.22
2018-12-26T07:43:38.928Z,101776.63
2018-12-26T07:46:07.208Z,101786.14
2018-12-26T07:48:35.304Z,101776.55
2018-12-26T07:51:03.347Z,101779.47
2018-12-26T07:53:31.687Z,101781.14
2018-12-26T07:55:59.764Z,101785.23
2018-12-26T07:58:28.187Z,101780.85
2018-12-26T08:00:56.273Z,101782.15
2018-12-26T08:03:24.383Z,101780.02
2018-12-26T08:05:52.639Z,101777.05
2018-12-26T08:08:20.844Z,101781.61
2018-12-26T08:10:50.283Z,101783.73
2018-12-26T08:13:18.275Z,101780.61
2018-12-26T08:15:46.375Z,101793.55
2018-12-26T08:18:14.649Z,101794.79
2018-12-26T08:20:42.691Z,101793.13
2018-12-26T08:23:10.895Z,101793.55
2018-12-26T08:25:38.997Z,101792.03
2018-12-26T08:28:07.277Z,101784.94
2018-12-26T08:30:35.391Z,101790.65
2018-12-26T08:33:03.416Z,101793.36
2018-12-26T08:35:33.245Z,101796.19
2018-12-26T08:38:01.347Z,101797.68
2018-12-26T08:40:29.377Z,101804.73
2018-12-26T08:42:57.801Z,101811.65
2018-12-26T08:45:26.015Z,101810.69
2018-12-26T08:47:54.098Z,101812.66
2018-12-26T08:50:22.522Z,101810.25
2018-12-26T08:52:50.533Z,101801.83
2018-12-26T08:55:18.603Z,101799.41
2018-12-26T08:57:46.627Z,101801.39
2018-12-26T09:00:14.788Z,101807.34
2018-12-26T09:02:43.173Z,101811.98
2018-12-26T09:05:11.591Z,101805.52
2018-12-26T09:07:39.980Z,101807.19
2018-12-26T09:10:09.042Z,101806.19
2018-12-26T09:12:37.365Z,101803.23
2018-12-26T09:15:05.993Z,101797.88
2018-12-26T09:17:34.012Z,101793.41
2018-12-26T09:20:02.629Z,101794.53
2018-12-26T09:22:30.726Z,101797.57
2018-12-26T09:24:58.770Z,101791.23
2018-12-26T09:27:27.365Z,101797.02
2018-12-26T09:29:55.365Z,101803.77
2018-12-26T09:32:23.433Z,101799.97
2018-12-26T09:34:51.518Z,101802.93
2018-12-26T09:37:19.882Z,101808.61
2018-12-26T09:39:47.973Z,101804.17
2018-12-26T09:42:16.058Z,101804.78
2018-12-26T09:44:44.560Z,101802.32
2018-12-26T09:47:13.033Z,101805.36
2018-12-26T09:49:41.144Z,101799.69
2018-12-26T09:52:09.579Z,101793.53
2018-12-26T09:54:37.773Z,101785.64
2018-12-26T09:57:06.203Z,101796.11
2018-12-26T09:59:34.567Z,101795.20
2018-12-26T10:02:02.756Z,101795.53
2018-12-26T10:04:30.841Z,101798.42
2018-12-26T10:06:58.913Z,101800.70
2018-12-26T10:09:26.960Z,101806.98
2018-12-26T10:11:55.684Z,101800.27
2018-12-26T10:14:23.765Z,101806.27
2018-12-26T10:16:51.874Z,101796.65
2018-12-26T10:19:19.934Z,101796.88
2018-12-26T10:21:48.413Z,101796.75
2018-12-26T10:24:16.437Z,101798.50
2018-12-26T10:26:44.842Z,101794.54
2018-12-26T10:29:12.879Z,101790.59
2018-12-26T10:31:40.944Z,101783.62
2018-12-26T10:34:09.058Z,101783.38
2018-12-26T10:36:37.056Z,101771.91
2018-12-26T10:39:06.520Z,101773.76
2018-12-26T10:41:35.521Z,101762.67
2018-12-26T10:44:03.610Z,101759.92
2018-12-26T10:46:31.732Z,101759.70
2018-12-26T10:48:59.836Z,101757.74
2018-12-26T10:51:27.938Z,101747.18
2018-12-26T10:53:56.271Z,101753.03
2018-12-26T10:56:24.307Z,101751.44
2018-12-26T10:58:52.534Z,101746.72
2018-12-26T11:01:20.599Z,101738.34
2018-12-26T11:03:48.710Z,101744.19
2018-12-26T11:06:17.441Z,101744.10
2018-12-26T11:08:45.688Z,101740.22
2018-12-26T11:11:13.740Z,101732.76
2018-12-26T11:13:41.797Z,101728.28
2018-12-26T11:16:10.160Z,101726.53
2018-12-26T11:18:38.342Z,101725.53
2018-12-26T11:21:06.403Z,101719.48
2018-12-26T11:23:34.488Z,101725.53
2018-12-26T11:26:02.635Z,101724.33
2018-12-26T11:28:30.723Z,101721.14
2018-12-26T11:30:58.779Z,101717.34
2018-12-26T11:33:27.284Z,101720.76
2018-12-26T11:35:55.602Z,101714.73
2018-12-26T11:38:24.746Z,101714.81
2018-12-26T11:40:52.801Z,101710.16
2018-12-26T11:43:20.862Z,101705.88
2018-12-26T11:45:49.615Z,101700.34
2018-12-26T11:48:17.701Z,101700.45
2018-12-26T11:50:46.069Z,101691.02
2018-12-26T11:53:14.147Z,101697.44
2018-12-26T11:55:42.206Z,101689.03
2018-12-26T11:58:10.352Z,101683.62
2018-12-26T12:00:38.390Z,101679.09
2018-12-26T12:03:06.486Z,101682.66
2018-12-26T12:05:34.539Z,101680.21
2018-12-26T12:08:02.780Z,101677.39
2018-12-26T12:10:31.105Z,101672.95
2018-12-26T12:12:59.488Z,101672.48
2018-12-26T12:15:27.562Z,101673.09
2018-12-26T12:17:55.632Z,101669.94
2018-12-26T12:20:24.205Z,101664.34
2018-12-26T12:22:52.238Z,101661.98
2018-12-26T12:25:21.755Z,101657.12
2018-12-26T12:27:49.823Z,101656.52
2018-12-26T12:30:17.939Z,101654.10
2018-12-26T12:32:45.997Z,101645.04
2018-12-26T12:35:14.105Z,101645.96
2018-12-26T12:37:42.601Z,101646.94
2018-12-26T12:40:11.579Z,101649.33
2018-12-26T12:42:39.633Z,101644.06
2018-12-26T12:45:07.749Z,101646.02
2018-12-26T12:47:35.887Z,101642.91
2018-12-26T12:50:04.413Z,101644.12
2018-12-26T12:52:32.784Z,101641.81
2018-12-26T12:55:00.910Z,101642.78
2018-12-26T12:57:30.160Z,101643.21
2018-12-26T12:59:58.281Z,101647.60
2018-12-26T13:02:26.321Z,101647.66
2018-12-26T13:04:54.415Z,101649.22
2018-12-26T13:07:22.517Z,101651.02
2018-12-26T13:09:50.644Z,101650.97
2018-12-26T13:12:18.722Z,101647.26
2018-12-26T13:14:46.791Z,101646.42
2018-12-26T13:17:14.868Z,101644.61
2018-12-26T13:19:44.368Z,101648.41
2018-12-26T13:22:12.459Z,101648.55
2018-12-26T13:24:40.570Z,101654.62
2018-12-26T13:27:08.641Z,101649.12
2018-12-26T13:29:37.056Z,101648.33
2018-12-26T13:32:05.129Z,101647.14
2018-12-26T13:34:33.219Z,101652.09
2018-12-26T13:37:01.220Z,101655.36
2018-12-26T13:39:30.414Z,101656.20
2018-12-26T13:41:58.491Z,101657.41
2018-12-26T13:44:26.611Z,101653.89
2018-12-26T13:46:54.679Z,101655.65
2018-12-26T13:49:22.766Z,101652.14
2018-12-26T13:51:51.057Z,101654.63
2018-12-26T13:54:19.140Z,101657.23
2018-12-26T13:56:47.235Z,101651.58
2018-12-26T13:59:15.450Z,101658.92
2018-12-26T14:01:43.831Z,101654.11
2018-12-26T14:04:11.856Z,101656.98
2018-12-26T14:06:39.949Z,101649.39
2018-12-26T14:09:08.007Z,101655.83
2018-12-26T14:11:36.100Z,101654.48
2018-12-26T14:14:04.468Z,101652.05
2018-12-26T14:16:33.125Z,101644.36
2018-12-26T14:19:01.522Z,101652.41
2018-12-26T14:21:29.636Z,101644.95
2018-12-26T14:23:57.657Z,101646.63
2018-12-26T14:26:25.694Z,101651.26
2018-12-26T14:28:53.984Z,101648.20
2018-12-26T14:31:22.080Z,101647.66
2018-12-26T14:33:50.085Z,101652.00
2018-12-26T14:36:18.207Z,101657.18
2018-12-26T14:38:46.249Z,101652.00
2018-12-26T14:41:14.296Z,101647.19
2018-12-26T14:43:42.295Z,101643.77
2018-12-26T14:46:10.506Z,101647.83
2018-12-26T14:48:38.825Z,101641.91
2018-12-26T14:51:06.909Z,101638.85
2018-12-26T14:53:34.948Z,101640.06
2018-12-26T14:56:02.980Z,101639.87
2018-12-26T14:58:31.073Z,101636.91
2018-12-26T15:00:59.273Z,101642.01
2018-12-26T15:03:27.270Z,101647.05
2018-12-26T15:05:55.557Z,101647.50
2018-12-26T15:08:23.560Z,101648.42
2018-12-26T15:10:51.650Z,101653.23
2018-12-26T15:13:20.075Z,101652.38
2018-12-26T15:15:48.462Z,101651.26
2018-12-26T15:18:17.498Z,101657.50
2018-12-26T15:20:45.578Z,101658.52
2018-12-26T15:23:13.636Z,101659.53
2018-12-26T15:25:41.735Z,101655.09
2018-12-26T15:28:10.842Z,101650.46
2018-12-26T15:30:38.913Z,101653.11
2018-12-26T15:33:07.721Z,101655.70
2018-12-26T15:35:35.753Z,101656.89
2018-12-26T15:38:04.316Z,101650.73
2018-12-26T15:40:32.376Z,101645.88
2018-12-26T15:43:00.745Z,101643.37
2018-12-26T15:45:28.737Z,101641.04
2018-12-26T15:47:56.795Z,101646.98
2018-12-26T15:50:25.189Z,101637.12
2018-12-26T15:52:53.297Z,101639.92
2018-12-26T15:55:21.284Z,101643.06
2018-12-26T15:57:49.342Z,101639.27
2018-12-26T16:00:17.391Z,101640.56
2018-12-26T16:02:45.487Z,101645.11
2018-12-26T16:05:13.848Z,101641.62
2018-12-26T16:07:42.083Z,101644.05
2018-12-26T16:10:10.110Z,101646.87
2018-12-26T16:12:38.184Z,101638.56
2018-12-26T16:15:08.580Z,101634.51
2018-12-26T16:17:36.667Z,101633.08
2018-12-26T16:20:07.037Z,101629.56
2018-12-26T16:22:35.138Z,101629.10
2018-12-26T16:25:03.727Z,101623.64
2018-12-26T16:27:32.108Z,101627.81
2018-12-26T16:30:00.155Z,101624.94
2018-12-26T16:32:28.845Z,101622.34
2018-12-26T16:34:56.912Z,101622.80
2018-12-26T16:37:25.000Z,101615.56
2018-12-26T16:39:53.095Z,101619.16
2018-12-26T16:42:21.672Z,101619.30
2018-12-26T16:44:49.837Z,101617.71
2018-12-26T16:47:18.173Z,101625.10
2018-12-26T16:49:46.214Z,101624.81
2018-12-26T16:52:14.492Z,101623.52
2018-12-26T16:54:43.252Z,101627.91
2018-12-26T16:57:11.674Z,101622.36
2018-12-26T16:59:39.667Z,101623.28
2018-12-26T17:02:07.652Z,101628.45
2018-12-26T17:04:35.672Z,101631.96
2018-12-26T17:07:04.230Z,101631.64
2018-12-26T17:09:32.219Z,101631.35
2018-12-26T17:12:00.228Z,101640.58
2018-12-26T17:14:28.222Z,101639.80
2018-12-26T17:16:56.267Z,101638.50
2018-12-26T17:19:24.260Z,101636.75
2018-12-26T17:21:52.561Z,101637.66
2018-12-26T17:24:21.557Z,101639.80
2018-12-26T17:26:49.596Z,101636.38
2018-12-26T17:29:17.800Z,101641.55
2018-12-26T17:31:46.111Z,101644.51
2018-12-26T17:34:14.267Z,101646.27
2018-12-26T17:36:42.320Z,101650.97
2018-12-26T17:39:10.431Z,101645.05
2018-12-26T17:41:38.449Z,101648.55
2018-12-26T17:44:06.487Z,101647.80
2018-12-26T17:46:34.768Z,101650.84
2018-12-26T17:49:02.869Z,101648.69
2018-12-26T17:51:30.882Z,101653.44
2018-12-26T17:54:48.467Z,101652.98
2018-12-26T17:57:31.441Z,101650.77
2018-12-26T18:00:34.033Z,101645.27
2018-12-26T18:03:02.322Z,101647.02
2018-12-26T18:05:30.383Z,101645.81
2018-12-26T18:07:58.763Z,101648.02
2018-12-26T18:10:26.761Z,101648.56
2018-12-26T18:12:55.419Z,101645.20
2018-12-26T18:15:23.470Z,101645.66
2018-12-26T18:17:52.890Z,101637.45
2018-12-26T18:20:20.906Z,101631.12
2018-12-26T18:22:48.967Z,101630.28
2018-12-26T18:25:16.988Z,101632.03
2018-12-26T18:27:46.096Z,101632.20
2018-12-26T18:30:14.471Z,101631.20
2018-12-26T18:32:42.497Z,101625.49
2018-12-26T18:35:10.645Z,101625.63
2018-12-26T18:37:38.717Z,101625.12
2018-12-26T18:40:07.525Z,101623.74
2018-12-26T18:42:35.804Z,101626.08
2018-12-26T18:45:06.482Z,101626.32
2018-12-26T18:47:34.740Z,101628.58
2018-12-26T18:50:03.498Z,101627.28
2018-12-26T18:52:31.633Z,101619.70
2018-12-26T18:55:00.203Z,101624.03
2018-12-26T18:57:28.416Z,101620.16
2018-12-26T18:59:56.660Z,101619.70
2018-12-26T19:02:24.653Z,101618.48
2018-12-26T19:04:52.759Z,101617.57
2018-12-26T19:07:21.077Z,101619.08
2018-12-26T19:09:49.181Z,101610.03
2018-12-26T19:12:17.254Z,101612.23
2018-12-26T19:14:45.763Z,101606.69
2018-12-26T19:17:13.889Z,101605.02
2018-12-26T19:19:43.138Z,101608.44
2018-12-26T19:22:11.446Z,101609.66
2018-12-26T19:24:39.681Z,101606.11
2018-12-26T19:27:07.969Z,101598.73
2018-12-26T19:29:36.363Z,101606.32
2018-12-26T19:32:04.513Z,101610.58
2018-12-26T19:34:32.804Z,101617.95
2018-12-26T19:37:01.306Z,101610.28
2018-12-26T19:39:29.601Z,101603.81
2018-12-26T19:41:58.043Z,101603.31
2018-12-26T19:44:26.324Z,101602.73
2018-12-26T19:46:54.768Z,101604.06
2018-12-26T19:49:23.411Z,101601.56
2018-12-26T19:51:51.976Z,101597.77
2018-12-26T19:54:20.482Z,101596.85
2018-12-26T19:56:48.788Z,101591.94
2018-12-26T19:59:17.215Z,101587.90
2018-12-26T20:01:48.248Z,101586.98
2018-12-26T20:04:15.137Z,101590.35
2018-12-26T20:06:43.210Z,101588.69
2018-12-26T20:09:11.686Z,101596.44
2018-12-26T20:11:39.727Z,101591.27
2018-12-26T20:14:07.889Z,101591.64
2018-12-26T20:16:36.047Z,101586.02
2018-12-26T20:19:04.213Z,101584.64
2018-12-26T20:21:32.441Z,101579.94
2018-12-26T20:24:00.512Z,101584.19
2018-12-26T20:26:28.803Z,101579.56
2018-12-26T20:28:56.870Z,101574.98
2018-12-26T20:31:24.981Z,101569.19
2018-12-26T20:33:53.060Z,101573.52
2018-12-26T20:36:21.075Z,101569.55
2018-12-26T20:38:49.415Z,101573.50
2018-12-26T20:41:17.575Z,101566.52
2018-12-26T20:43:45.667Z,101565.55
2018-12-26T20:46:13.816Z,101562.97
2018-12-26T20:48:41.963Z,101563.80
2018-12-26T20:51:10.327Z,101560.30
2018-12-26T20:53:38.529Z,101560.30
2018-12-26T20:56:06.686Z,101556.89
2018-12-26T20:58:34.954Z,101561.14
2018-12-26T21:01:03.111Z,101560.59
2018-12-26T21:03:31.132Z,101557.34
2018-12-26T21:05:59.241Z,101557.17
2018-12-26T21:08:27.470Z,101556.39
2018-12-26T21:10:55.592Z,101555.17
2018-12-26T21:13:23.682Z,101554.34
2018-12-26T21:15:51.733Z,101551.30
2018-12-26T21:18:19.799Z,101551.46
2018-12-26T21:20:49.568Z,101557.13
2018-12-26T21:23:18.073Z,101546.50
2018-12-26T21:25:46.820Z,101547.72
2018-12-26T21:28:15.664Z,101544.17
2018-12-26T21:30:43.827Z,101546.22
2018-12-26T21:33:11.942Z,101548.27
2018-12-26T21:35:40.069Z,101541.67
2018-12-26T21:38:08.055Z,101537.27
2018-12-26T21:40:36.074Z,101534.69
2018-12-26T21:43:04.123Z,101528.06
2018-12-26T21:45:32.153Z,101530.94
2018-12-26T21:48:00.152Z,101524.77
2018-12-26T21:50:28.171Z,101526.05
2018-12-26T21:52:56.212Z,101529.17
2018-12-26T21:55:24.998Z,101527.20
2018-12-26T21:57:53.107Z,101521.34
2018-12-26T22:00:21.496Z,101521.87
2018-12-26T22:02:49.875Z,101519.67
2018-12-26T22:05:17.884Z,101512.59
2018-12-26T22:07:46.821Z,101509.17
2018-12-26T22:10:14.938Z,101510.38
2018-12-26T22:12:43.403Z,101515.50
2018-12-26T22:15:11.494Z,101515.42
2018-12-26T22:17:40.141Z,101516.62
2018-12-26T22:20:08.187Z,101513.22
2018-12-26T22:22:36.260Z,101518.37
2018-12-26T22:25:04.731Z,101520.05
2018-12-26T22:27:32.764Z,101519.46
2018-12-26T22:30:01.088Z,101512.59
2018-12-26T22:32:30.733Z,101515.43
2018-12-26T22:34:59.433Z,101505.40
2018-12-26T22:37:27.575Z,101507.09
2018-12-26T22:39:55.956Z,101498.36
2018-12-26T22:42:25.052Z,101501.23
2018-12-26T22:44:53.058Z,101502.31
2018-12-26T22:47:21.411Z,101494.03
2018-12-26T22:49:49.695Z,101490.11
2018-12-26T22:52:17.730Z,101486.98
2018-12-26T22:54:45.762Z,101476.95
2018-12-26T22:57:14.081Z,101479.45
2018-12-26T22:59:42.057Z,101478.02
2018-12-26T23:02:10.096Z,101472.23
2018-12-26T23:04:38.191Z,101474.52
2018-12-26T23:07:06.495Z,101469.58
2018-12-26T23:09:34.487Z,101460.16
2018-12-26T23:12:02.901Z,101464.03
2018-12-26T23:14:30.920Z,101463.20
2018-12-26T23:16:59.222Z,101463.20
2018-12-26T23:19:27.210Z,101464.41
2018-12-26T23:21:55.250Z,101461.77
2018-12-26T23:24:24.747Z,101450.53
2018-12-26T23:26:52.765Z,101450.81
2018-12-26T23:29:20.767Z,101452.41
2018-12-26T23:31:48.776Z,101452.81
2018-12-26T23:34:16.801Z,101441.19
2018-12-26T23:36:44.802Z,101439.06
2018-12-26T23:39:12.771Z,101442.48
2018-12-26T23:41:41.116Z,101442.94
2018-12-26T23:44:10.232Z,101433.20
2018-12-26T23:46:38.113Z,101437.29
2018-12-26T23:49:06.447Z,101433.13
2018-12-26T23:51:34.424Z,101435.47
2018-12-26T23:54:02.427Z,101431.30
2018-12-26T23:56:30.445Z,101436.84
2018-12-26T23:58:58.772Z,101430.84
